Persian Virtual

Persian Virtual Airlines! DIVERSITY OF QUALITY



 METAR AND TAF INFORMATION
METAR FOR OIBQ
ADDS - METARS form results

(1058 UTC 17 April 2021)
Data provider http://aviationweather.gov/metar/data/
 
METAR text: OIBQ 171000Z 28008KT CAVOK 25/17 Q1011
Conditions at: OIBQ (KHARK ISLAND , IR) observed 1000 UTC 17 April 2021
Temperature: 25.0°C (77°F)
Dewpoint: 17.0°C (63°F) [RH = 61%]
Pressure (altimeter): 29.85 inches Hg (1011.0 mb)
Winds: from the W (280 degrees) at 9 MPH (8 knots; 4.1 m/s)
Visibility: 6 or more miles (10+ km)
Ceiling: ceiling and visibility are OK
Clouds: unknown
Weather: no significant weather observed at this time

 AIRPORT MAP

 RUNWAY INFORMATION
Runway 14 Runway length 5922 ft Runway width 148 ft
Runway elevation 9 ft Runway displaced threshold 0 ft Runway heading 135
Runway 32 Runway length 5922 ft Runway width 148 ft
Runway elevation 17 ft Runway displaced threshold 0 ft Runway heading 315

 AIRPORT FREQUENCIES

 AIRPORT NEAR NAVIGATION AIDS
Type VOR-DME Name Khark Island Frequency 113400 KHZ
Type NDB Name Khark Island Frequency 325 KHZ